createdAt,value
2024-04-30T00:00:10.564Z,57.63
2024-04-30T00:02:57.351Z,59.30
2024-04-30T00:05:04.540Z,60.94
2024-04-30T00:07:11.652Z,66.87
2024-04-30T00:09:18.547Z,66.62
2024-04-30T00:11:25.461Z,61.06
2024-04-30T00:13:32.487Z,55.97
2024-04-30T00:15:39.514Z,54.77
2024-04-30T00:17:46.933Z,56.85
2024-04-30T00:19:53.994Z,58.25
2024-04-30T00:22:00.944Z,59.89
2024-04-30T00:24:08.715Z,61.57
2024-04-30T00:26:15.653Z,68.13
2024-04-30T00:28:24.226Z,66.85
2024-04-30T00:30:31.107Z,61.40
2024-04-30T00:32:38.067Z,56.19
2024-04-30T00:34:45.115Z,55.34
2024-04-30T00:36:52.278Z,56.94
2024-04-30T00:38:59.126Z,58.79
2024-04-30T00:41:06.314Z,59.91
2024-04-30T00:43:13.227Z,60.80
2024-04-30T00:45:20.335Z,67.20
2024-04-30T00:47:27.522Z,66.70
2024-04-30T00:49:34.709Z,61.19
2024-04-30T00:51:41.807Z,56.38
2024-04-30T00:53:49.029Z,55.15
2024-04-30T00:55:55.908Z,57.06
2024-04-30T00:58:02.912Z,58.93
2024-04-30T01:00:11.322Z,60.01
2024-04-30T01:02:18.976Z,61.60
2024-04-30T01:04:25.968Z,67.73
2024-04-30T01:06:32.904Z,66.58
2024-04-30T01:08:39.749Z,61.09
2024-04-30T01:10:46.803Z,56.06
2024-04-30T01:12:54.972Z,54.96
2024-04-30T01:15:01.822Z,56.86
2024-04-30T01:17:08.892Z,58.62
2024-04-30T01:19:15.925Z,59.74
2024-04-30T01:21:22.867Z,60.71
2024-04-30T01:23:29.746Z,67.43
2024-04-30T01:25:36.722Z,66.86
2024-04-30T01:27:43.634Z,61.56
2024-04-30T01:29:50.570Z,56.30
2024-04-30T01:31:58.397Z,54.71
2024-04-30T01:34:05.561Z,56.73
2024-04-30T01:36:12.470Z,58.36
2024-04-30T01:38:19.408Z,59.34
2024-04-30T01:40:26.309Z,61.43
2024-04-30T01:42:33.168Z,68.10
2024-04-30T01:44:40.053Z,66.81
2024-04-30T01:46:46.934Z,61.64
2024-04-30T01:48:53.764Z,56.21
2024-04-30T01:51:00.656Z,54.96
2024-04-30T01:53:07.723Z,56.95
2024-04-30T01:55:14.760Z,58.29
2024-04-30T01:57:21.764Z,59.93
2024-04-30T01:59:28.644Z,61.48
2024-04-30T02:01:35.626Z,67.68
2024-04-30T02:03:42.542Z,67.40
2024-04-30T02:05:49.558Z,61.72
2024-04-30T02:07:56.383Z,56.53
2024-04-30T02:10:03.252Z,55.05
2024-04-30T02:12:10.297Z,56.70
2024-04-30T02:14:17.181Z,58.50
2024-04-30T02:16:24.052Z,59.75
2024-04-30T02:18:31.010Z,61.44
2024-04-30T02:20:37.859Z,68.32
2024-04-30T02:22:44.775Z,66.90
2024-04-30T02:24:51.656Z,60.61
2024-04-30T02:26:58.590Z,55.75
2024-04-30T02:29:05.470Z,55.15
2024-04-30T02:31:32.482Z,57.02
2024-04-30T02:33:57.261Z,59.32
2024-04-30T02:36:08.048Z,60.50
2024-04-30T02:38:14.940Z,67.12
2024-04-30T02:40:21.801Z,66.76
2024-04-30T02:42:28.679Z,61.61
2024-04-30T02:44:35.605Z,56.00
2024-04-30T02:46:42.863Z,54.83
2024-04-30T02:48:49.789Z,56.65
2024-04-30T02:50:56.628Z,58.18
2024-04-30T02:53:03.466Z,59.91
2024-04-30T02:55:10.563Z,61.41
2024-04-30T02:57:17.468Z,68.25
2024-04-30T02:59:24.368Z,67.96
2024-04-30T03:01:31.411Z,61.68
2024-04-30T03:03:38.431Z,56.46
2024-04-30T03:05:45.312Z,55.24
2024-04-30T03:07:52.191Z,56.97
2024-04-30T03:09:59.110Z,58.95
2024-04-30T03:12:06.897Z,60.10
2024-04-30T03:14:14.024Z,61.36
2024-04-30T03:16:20.950Z,68.61
2024-04-30T03:18:27.898Z,67.99
2024-04-30T03:20:34.936Z,61.74
2024-04-30T03:22:42.028Z,56.26
2024-04-30T03:24:48.998Z,54.98
2024-04-30T03:26:56.101Z,56.30
2024-04-30T03:29:03.040Z,58.57
2024-04-30T03:31:14.986Z,59.96
2024-04-30T03:33:21.960Z,63.39
2024-04-30T03:35:28.891Z,69.58
2024-04-30T03:37:35.783Z,64.60
2024-04-30T03:39:42.715Z,59.99
2024-04-30T03:41:49.575Z,56.33
2024-04-30T03:43:56.614Z,56.73
2024-04-30T03:46:03.486Z,58.26
2024-04-30T03:48:10.603Z,60.21
2024-04-30T03:50:17.518Z,61.66
2024-04-30T03:52:24.517Z,69.21
2024-04-30T03:54:31.415Z,68.60
2024-04-30T03:56:38.313Z,62.97
2024-04-30T03:58:45.316Z,58.23
2024-04-30T04:00:52.229Z,55.42
2024-04-30T04:02:59.137Z,56.39
2024-04-30T04:05:06.780Z,58.44
2024-04-30T04:07:13.731Z,60.14
2024-04-30T04:09:20.895Z,61.67
2024-04-30T04:11:46.001Z,69.23
2024-04-30T04:14:10.733Z,67.87
2024-04-30T04:16:17.604Z,61.45
2024-04-30T04:18:24.607Z,57.31
2024-04-30T04:20:31.512Z,55.66
2024-04-30T04:22:38.406Z,57.53
2024-04-30T04:24:45.283Z,59.76
2024-04-30T04:26:52.140Z,61.00
2024-04-30T04:28:58.972Z,67.38
2024-04-30T04:31:06.101Z,67.11
2024-04-30T04:33:13.093Z,62.08
2024-04-30T04:35:19.974Z,57.76
2024-04-30T04:37:27.636Z,55.87
2024-04-30T04:39:34.778Z,57.30
2024-04-30T04:41:41.693Z,57.68
2024-04-30T04:43:48.644Z,60.74
2024-04-30T04:45:55.519Z,66.91
2024-04-30T04:48:03.191Z,66.95
2024-04-30T04:50:10.801Z,61.95
2024-04-30T04:52:17.795Z,58.30
2024-04-30T04:54:24.717Z,55.84
2024-04-30T04:56:31.578Z,57.85
2024-04-30T04:58:38.484Z,59.93
2024-04-30T05:00:45.317Z,61.32
2024-04-30T05:02:52.697Z,67.66
2024-04-30T05:05:00.120Z,67.28
2024-04-30T05:07:07.391Z,60.94
2024-04-30T05:09:14.269Z,56.76
2024-04-30T05:11:21.324Z,55.76
2024-04-30T05:13:28.251Z,57.12
2024-04-30T05:15:35.121Z,58.57
2024-04-30T05:17:42.100Z,59.58
2024-04-30T05:19:49.080Z,60.76
2024-04-30T05:21:55.953Z,66.77
2024-04-30T05:24:02.835Z,65.68
2024-04-30T05:26:09.705Z,59.63
2024-04-30T05:28:16.635Z,54.62
2024-04-30T05:30:23.969Z,54.71
2024-04-30T05:32:30.939Z,55.88
2024-04-30T05:34:37.843Z,56.72
2024-04-30T05:36:44.787Z,58.99
2024-04-30T05:38:54.520Z,59.92
2024-04-30T05:41:01.587Z,64.73
2024-04-30T05:43:11.688Z,61.70
2024-04-30T05:45:18.627Z,56.60
2024-04-30T05:47:53.430Z,55.60
2024-04-30T05:50:16.432Z,55.51
2024-04-30T05:52:24.086Z,56.47
2024-04-30T05:54:31.009Z,59.82
2024-04-30T05:56:37.864Z,63.68
2024-04-30T05:58:44.772Z,61.82
2024-04-30T06:00:51.693Z,56.37
2024-04-30T06:03:01.672Z,53.96
2024-04-30T06:05:11.768Z,53.97
2024-04-30T06:07:18.810Z,57.26
2024-04-30T06:09:25.658Z,58.95
2024-04-30T06:11:32.750Z,60.56
2024-04-30T06:13:39.700Z,60.59
2024-04-30T06:15:46.572Z,63.98
2024-04-30T06:17:53.579Z,64.17
2024-04-30T06:20:00.696Z,55.37
2024-04-30T06:22:07.960Z,53.24
2024-04-30T06:24:14.965Z,54.85
2024-04-30T06:26:21.847Z,56.43
2024-04-30T06:28:30.286Z,55.85
2024-04-30T06:30:38.216Z,55.86
2024-04-30T06:32:45.185Z,57.36
2024-04-30T06:34:52.456Z,58.39
2024-04-30T06:36:59.570Z,59.97
2024-04-30T06:39:06.513Z,60.67
2024-04-30T06:41:15.102Z,58.58
2024-04-30T06:43:22.762Z,60.86
2024-04-30T06:45:29.707Z,61.02
2024-04-30T06:47:36.695Z,60.19
2024-04-30T06:49:43.610Z,60.11
2024-04-30T06:51:50.482Z,59.69
2024-04-30T06:53:57.374Z,59.00
2024-04-30T06:56:04.581Z,59.74
2024-04-30T06:58:15.297Z,59.41
2024-04-30T07:00:22.475Z,58.42
2024-04-30T07:02:29.432Z,59.57
2024-04-30T07:04:36.442Z,58.73
2024-04-30T07:06:43.422Z,58.41
2024-04-30T07:08:50.291Z,58.78
2024-04-30T07:10:59.732Z,58.43
2024-04-30T07:13:09.978Z,57.46
2024-04-30T07:15:18.194Z,57.25
2024-04-30T07:17:25.120Z,57.22
2024-04-30T07:19:32.635Z,57.28
2024-04-30T07:21:41.784Z,57.62
2024-04-30T07:23:48.966Z,57.17
2024-04-30T07:25:55.803Z,56.23
2024-04-30T07:28:02.708Z,56.01
2024-04-30T07:30:10.669Z,55.41
2024-04-30T07:32:17.637Z,54.39
2024-04-30T07:34:24.654Z,53.79
2024-04-30T07:36:31.605Z,53.43
2024-04-30T07:38:38.515Z,53.26
2024-04-30T07:40:45.742Z,52.41
2024-04-30T07:42:52.811Z,52.32
2024-04-30T07:44:59.706Z,51.64
2024-04-30T07:47:06.984Z,51.48
2024-04-30T07:49:13.894Z,50.85
2024-04-30T07:51:20.812Z,49.92
2024-04-30T07:53:27.679Z,49.61
2024-04-30T07:55:35.066Z,48.98
2024-04-30T07:57:42.057Z,48.82
2024-04-30T07:59:48.922Z,48.52
2024-04-30T08:01:55.795Z,48.27
2024-04-30T08:04:02.961Z,47.22
2024-04-30T08:06:14.785Z,46.48
2024-04-30T08:08:27.325Z,45.91
2024-04-30T08:10:34.253Z,45.72
2024-04-30T08:12:41.137Z,44.97
2024-04-30T08:14:48.013Z,44.68
2024-04-30T08:16:54.948Z,43.96
2024-04-30T08:19:01.863Z,43.42
2024-04-30T08:21:09.318Z,42.71
2024-04-30T08:23:16.198Z,42.28
2024-04-30T08:25:23.135Z,41.33
2024-04-30T08:27:30.093Z,41.21
2024-04-30T08:29:37.031Z,41.79
2024-04-30T08:31:44.086Z,41.68
2024-04-30T08:33:51.124Z,41.23
2024-04-30T08:35:58.111Z,40.44
2024-04-30T08:38:09.313Z,40.87
2024-04-30T08:40:16.452Z,40.92
2024-04-30T08:42:24.208Z,40.44
2024-04-30T08:44:33.363Z,38.94
2024-04-30T08:46:43.349Z,39.22
2024-04-30T08:48:53.276Z,39.50
2024-04-30T08:51:00.908Z,39.27
2024-04-30T08:53:09.666Z,38.60
2024-04-30T08:55:20.373Z,37.68
2024-04-30T08:57:27.502Z,38.09
2024-04-30T08:59:34.637Z,37.69
2024-04-30T09:01:42.469Z,37.71
2024-04-30T09:03:50.838Z,37.86
2024-04-30T09:05:58.021Z,37.78
2024-04-30T09:08:05.943Z,36.70
2024-04-30T09:10:12.971Z,36.28
2024-04-30T09:12:20.029Z,35.53
2024-04-30T09:14:26.952Z,35.06
2024-04-30T09:16:34.026Z,34.68
2024-04-30T09:18:51.071Z,35.05
2024-04-30T09:21:07.966Z,35.23
2024-04-30T09:23:30.167Z,34.79
2024-04-30T09:25:37.960Z,34.86
2024-04-30T09:27:45.458Z,34.83
2024-04-30T09:29:52.494Z,34.66
2024-04-30T09:31:59.394Z,33.69
2024-04-30T09:34:06.313Z,33.60
2024-04-30T09:36:15.858Z,33.85
2024-04-30T09:38:24.052Z,34.07
2024-04-30T09:40:31.707Z,32.78
2024-04-30T09:42:41.174Z,33.25
2024-04-30T09:44:50.864Z,32.66
2024-04-30T09:46:58.295Z,31.85
2024-04-30T09:49:08.520Z,32.31
2024-04-30T09:51:16.435Z,32.42
2024-04-30T09:53:24.962Z,32.76
2024-04-30T09:55:33.291Z,32.29
2024-04-30T09:57:41.955Z,31.63
2024-04-30T09:59:48.850Z,31.91
2024-04-30T10:01:57.103Z,32.09
2024-04-30T10:04:05.978Z,32.14
2024-04-30T10:06:15.366Z,31.59
2024-04-30T10:08:23.268Z,31.54
2024-04-30T10:10:31.614Z,31.64
2024-04-30T10:12:38.487Z,31.89
2024-04-30T10:14:45.315Z,31.63
2024-04-30T10:17:00.997Z,31.78
2024-04-30T10:19:08.460Z,31.75
2024-04-30T10:21:15.520Z,31.36
2024-04-30T10:23:32.632Z,30.60
2024-04-30T10:25:39.631Z,29.86
2024-04-30T10:27:46.711Z,29.02
2024-04-30T10:29:54.119Z,29.65
2024-04-30T10:32:04.999Z,30.29
2024-04-30T10:34:13.234Z,30.80
2024-04-30T10:36:20.185Z,30.67
2024-04-30T10:38:27.132Z,30.61
2024-04-30T10:40:34.100Z,30.25
2024-04-30T10:42:41.240Z,30.35
2024-04-30T10:44:48.085Z,30.19
2024-04-30T10:46:58.675Z,29.92
2024-04-30T10:49:07.590Z,30.17
2024-04-30T10:51:15.300Z,30.34
2024-04-30T10:53:22.549Z,30.26
2024-04-30T10:55:30.585Z,29.77
2024-04-30T10:57:38.783Z,29.81
2024-04-30T10:59:45.697Z,29.61
2024-04-30T11:01:52.542Z,29.00
2024-04-30T11:04:08.530Z,29.02
2024-04-30T11:06:16.192Z,29.40
2024-04-30T11:08:26.804Z,29.48
2024-04-30T11:10:34.859Z,29.63
2024-04-30T11:12:42.038Z,29.49
2024-04-30T11:14:49.440Z,29.15
2024-04-30T11:16:57.322Z,29.50
2024-04-30T11:19:04.226Z,29.40
2024-04-30T11:21:12.189Z,28.72
2024-04-30T11:23:19.032Z,28.23
2024-04-30T11:25:26.049Z,29.00
2024-04-30T11:27:32.942Z,28.96
2024-04-30T11:29:40.601Z,28.26
2024-04-30T11:31:47.762Z,28.75
2024-04-30T11:33:55.097Z,28.56
2024-04-30T11:36:01.956Z,28.64
2024-04-30T11:38:08.971Z,27.78
2024-04-30T11:40:16.065Z,28.01
2024-04-30T11:42:27.591Z,27.91
2024-04-30T11:44:41.197Z,28.23
2024-04-30T11:46:48.075Z,28.54
2024-04-30T11:48:55.375Z,28.66
2024-04-30T11:51:02.355Z,28.70
2024-04-30T11:53:09.447Z,28.96
2024-04-30T11:55:16.570Z,29.07
2024-04-30T11:57:23.464Z,28.54
2024-04-30T11:59:30.317Z,28.85
2024-04-30T12:01:37.179Z,28.45
2024-04-30T12:03:44.199Z,28.74
2024-04-30T12:05:51.069Z,28.98
2024-04-30T12:07:57.935Z,28.68
2024-04-30T12:10:10.045Z,28.82
2024-04-30T12:12:17.001Z,29.04
2024-04-30T12:14:23.873Z,28.85
2024-04-30T12:16:30.872Z,28.24
2024-04-30T12:18:37.888Z,28.59
2024-04-30T12:20:44.762Z,28.89
2024-04-30T12:22:51.666Z,28.75
2024-04-30T12:24:58.573Z,28.62
2024-04-30T12:27:05.812Z,28.61
2024-04-30T12:29:12.744Z,28.66
2024-04-30T12:31:19.630Z,28.72
2024-04-30T12:33:28.004Z,28.47
2024-04-30T12:35:36.319Z,28.36
2024-04-30T12:37:43.301Z,28.45
2024-04-30T12:39:51.917Z,28.09
2024-04-30T12:41:58.872Z,27.47
2024-04-30T12:44:05.939Z,27.21
2024-04-30T12:46:12.820Z,27.09
2024-04-30T12:48:19.966Z,26.67
2024-04-30T12:50:27.054Z,27.08
2024-04-30T12:52:34.021Z,27.39
2024-04-30T12:54:40.929Z,26.75
2024-04-30T12:56:47.772Z,26.98
2024-04-30T12:58:54.923Z,26.89
2024-04-30T13:01:01.869Z,27.14
2024-04-30T13:03:09.178Z,27.13
2024-04-30T13:05:16.254Z,27.06
2024-04-30T13:07:23.253Z,27.12
2024-04-30T13:09:32.423Z,26.70
2024-04-30T13:11:40.241Z,26.68
2024-04-30T13:13:47.246Z,26.75
2024-04-30T13:15:54.498Z,26.68
2024-04-30T13:18:01.392Z,26.62
2024-04-30T13:20:09.943Z,26.36
2024-04-30T13:22:16.857Z,26.66
2024-04-30T13:24:23.794Z,26.69
2024-04-30T13:26:30.810Z,26.47
2024-04-30T13:28:37.777Z,26.48
2024-04-30T13:30:44.807Z,26.48
2024-04-30T13:32:51.749Z,26.83
2024-04-30T13:34:58.734Z,26.19
2024-04-30T13:37:05.783Z,26.10
2024-04-30T13:39:15.306Z,26.48
2024-04-30T13:41:22.361Z,26.49
2024-04-30T13:43:29.359Z,26.45
2024-04-30T13:45:36.251Z,26.03
2024-04-30T13:47:43.202Z,25.89
2024-04-30T13:49:50.202Z,26.21
2024-04-30T13:51:57.176Z,26.29
2024-04-30T13:54:04.361Z,26.32
2024-04-30T13:56:14.453Z,26.12
2024-04-30T13:58:21.348Z,26.16
2024-04-30T14:00:28.359Z,26.14
2024-04-30T14:02:35.222Z,26.37
2024-04-30T14:04:42.488Z,26.28
2024-04-30T14:06:49.412Z,26.38
2024-04-30T14:08:56.600Z,26.46
2024-04-30T14:11:04.270Z,26.25
2024-04-30T14:13:11.629Z,26.46
2024-04-30T14:15:18.624Z,26.69
2024-04-30T14:17:25.519Z,26.85
2024-04-30T14:19:34.857Z,26.96
2024-04-30T14:21:42.172Z,26.69
2024-04-30T14:23:49.039Z,26.72
2024-04-30T14:25:55.982Z,26.40
2024-04-30T14:28:02.836Z,26.37
2024-04-30T14:30:11.713Z,26.03
2024-04-30T14:32:18.625Z,25.93
2024-04-30T14:34:26.359Z,26.31
2024-04-30T14:36:36.005Z,26.81
2024-04-30T14:38:44.100Z,26.97
2024-04-30T14:40:51.011Z,26.89
2024-04-30T14:42:57.882Z,27.14
2024-04-30T14:45:05.035Z,27.18
2024-04-30T14:47:11.910Z,27.16
2024-04-30T14:49:20.618Z,27.46
2024-04-30T14:51:34.748Z,27.61
2024-04-30T14:53:41.615Z,27.52
2024-04-30T14:55:48.530Z,27.62
2024-04-30T14:57:55.516Z,27.40
2024-04-30T15:00:02.507Z,27.35
2024-04-30T15:02:09.518Z,27.02
2024-04-30T15:04:16.631Z,27.09
2024-04-30T15:06:24.024Z,27.10
2024-04-30T15:08:31.009Z,26.95
2024-04-30T15:10:37.978Z,26.52
2024-04-30T15:12:44.852Z,26.51
2024-04-30T15:14:52.774Z,26.73
2024-04-30T15:16:59.775Z,26.72
2024-04-30T15:19:07.021Z,26.97
2024-04-30T15:21:14.148Z,26.97
2024-04-30T15:23:21.026Z,27.08
2024-04-30T15:25:29.419Z,26.96
2024-04-30T15:27:36.930Z,26.89
2024-04-30T15:29:43.790Z,26.63
2024-04-30T15:31:51.544Z,26.80
2024-04-30T15:33:58.441Z,26.93
2024-04-30T15:36:07.934Z,27.05
2024-04-30T15:38:15.853Z,27.15
2024-04-30T15:40:22.731Z,27.36
2024-04-30T15:42:29.652Z,27.59
2024-04-30T15:44:36.505Z,27.85
2024-04-30T15:46:43.761Z,27.79
2024-04-30T15:48:52.385Z,27.94
2024-04-30T15:51:04.040Z,28.05
2024-04-30T15:53:10.951Z,28.05
2024-04-30T15:55:18.019Z,28.16
2024-04-30T15:57:24.931Z,27.92
2024-04-30T15:59:33.110Z,28.03
2024-04-30T16:01:40.067Z,27.88
2024-04-30T16:03:46.938Z,27.87
2024-04-30T16:05:53.859Z,28.15
2024-04-30T16:08:00.702Z,28.08
2024-04-30T16:10:08.706Z,27.98
2024-04-30T16:12:15.637Z,27.98
2024-04-30T16:14:24.356Z,28.17
2024-04-30T16:16:31.333Z,28.40
2024-04-30T16:18:39.921Z,28.55
2024-04-30T16:20:46.835Z,28.56
2024-04-30T16:22:53.738Z,28.59
2024-04-30T16:25:00.591Z,28.84
2024-04-30T16:27:07.727Z,28.97
2024-04-30T16:29:14.806Z,29.09
2024-04-30T16:31:21.844Z,29.28
2024-04-30T16:33:29.625Z,29.42
2024-04-30T16:35:36.494Z,29.39
2024-04-30T16:37:43.313Z,29.62
2024-04-30T16:39:51.096Z,29.62
2024-04-30T16:41:58.093Z,29.85
2024-04-30T16:44:05.205Z,30.01
2024-04-30T16:46:12.146Z,30.20
2024-04-30T16:48:19.091Z,30.28
2024-04-30T16:50:26.209Z,30.47
2024-04-30T16:52:33.169Z,30.69
2024-04-30T16:54:40.052Z,30.75
2024-04-30T16:56:46.932Z,30.87
2024-04-30T16:58:54.219Z,31.09
2024-04-30T17:01:01.298Z,31.32
2024-04-30T17:03:10.400Z,31.36
2024-04-30T17:05:18.297Z,31.53
2024-04-30T17:07:25.256Z,31.68
2024-04-30T17:09:32.182Z,31.85
2024-04-30T17:11:42.951Z,32.30
2024-04-30T17:13:49.852Z,32.20
2024-04-30T17:15:56.786Z,32.38
2024-04-30T17:18:03.755Z,32.43
2024-04-30T17:20:11.324Z,32.69
2024-04-30T17:22:18.197Z,32.80
2024-04-30T17:24:25.154Z,33.08
2024-04-30T17:26:32.145Z,33.57
2024-04-30T17:28:41.060Z,33.67
2024-04-30T17:30:47.973Z,33.94
2024-04-30T17:32:54.976Z,33.90
2024-04-30T17:35:02.591Z,34.13
2024-04-30T17:37:09.534Z,34.34
2024-04-30T17:39:17.054Z,34.53
2024-04-30T17:41:27.210Z,34.72
2024-04-30T17:43:34.248Z,34.98
2024-04-30T17:45:41.238Z,35.21
2024-04-30T17:47:48.263Z,35.87
2024-04-30T17:49:56.233Z,36.85
2024-04-30T17:52:03.185Z,37.54
2024-04-30T17:54:10.049Z,38.24
2024-04-30T17:56:17.509Z,38.73
2024-04-30T17:58:24.499Z,39.45
2024-04-30T18:00:31.451Z,40.02
2024-04-30T18:02:38.389Z,40.11
2024-04-30T18:04:46.088Z,40.54
2024-04-30T18:06:53.282Z,41.07
2024-04-30T18:09:00.304Z,41.31
2024-04-30T18:11:12.903Z,41.68
2024-04-30T18:13:19.828Z,42.32
2024-04-30T18:15:26.779Z,42.76
2024-04-30T18:17:33.812Z,43.34
2024-04-30T18:19:42.100Z,43.75
2024-04-30T18:21:49.002Z,44.03
2024-04-30T18:23:56.106Z,44.64
2024-04-30T18:26:03.743Z,45.14
2024-04-30T18:28:10.609Z,45.21
2024-04-30T18:30:17.920Z,44.95
2024-04-30T18:32:24.918Z,45.53
2024-04-30T18:34:32.120Z,45.77
2024-04-30T18:36:41.984Z,45.93
2024-04-30T18:38:48.944Z,46.55
2024-04-30T18:40:55.845Z,46.94
2024-04-30T18:43:02.867Z,47.16
2024-04-30T18:45:09.967Z,47.53
2024-04-30T18:47:16.887Z,47.70
2024-04-30T18:49:23.806Z,48.13
2024-04-30T18:51:30.783Z,48.31
2024-04-30T18:53:37.725Z,48.26
2024-04-30T18:55:44.572Z,48.68
2024-04-30T18:57:51.517Z,49.28
2024-04-30T18:59:58.588Z,49.84
2024-04-30T19:02:06.261Z,49.67
2024-04-30T19:04:13.234Z,50.00
2024-04-30T19:06:21.110Z,50.51
2024-04-30T19:08:29.813Z,51.03
2024-04-30T19:10:37.521Z,50.86
2024-04-30T19:12:44.462Z,51.48
2024-04-30T19:14:51.305Z,51.44
2024-04-30T19:17:00.337Z,51.57
2024-04-30T19:19:07.371Z,52.16
2024-04-30T19:21:15.090Z,52.93
2024-04-30T19:23:29.838Z,52.97
2024-04-30T19:25:36.753Z,53.09
2024-04-30T19:27:43.662Z,52.92
2024-04-30T19:29:50.546Z,53.49
2024-04-30T19:31:57.422Z,53.19
2024-04-30T19:34:04.846Z,53.74
2024-04-30T19:36:19.206Z,53.86
2024-04-30T19:38:26.268Z,55.14
2024-04-30T19:40:33.242Z,54.63
2024-04-30T19:42:40.116Z,54.50
2024-04-30T19:44:47.041Z,55.37
2024-04-30T19:46:53.907Z,54.94
2024-04-30T19:49:01.196Z,55.90
2024-04-30T19:51:08.413Z,56.08
2024-04-30T19:53:15.408Z,55.39
2024-04-30T19:55:22.256Z,55.53
2024-04-30T19:57:29.163Z,56.39
2024-04-30T19:59:36.086Z,56.68
2024-04-30T20:01:43.723Z,56.51
2024-04-30T20:03:50.683Z,57.01
2024-04-30T20:05:57.673Z,56.85
2024-04-30T20:08:04.805Z,57.36
2024-04-30T20:10:11.764Z,57.63
2024-04-30T20:12:18.692Z,58.00
2024-04-30T20:14:25.659Z,57.65
2024-04-30T20:16:32.770Z,57.80
2024-04-30T20:18:39.673Z,57.37
2024-04-30T20:20:46.527Z,57.85
2024-04-30T20:22:53.422Z,58.18
2024-04-30T20:25:00.396Z,57.98
2024-04-30T20:27:07.543Z,57.97
2024-04-30T20:29:14.451Z,58.29
2024-04-30T20:31:21.276Z,58.93
2024-04-30T20:33:28.400Z,58.86
2024-04-30T20:35:35.290Z,59.69
2024-04-30T20:37:42.144Z,59.57
2024-04-30T20:39:49.147Z,59.12
2024-04-30T20:41:56.152Z,59.40
2024-04-30T20:44:03.070Z,60.06
2024-04-30T20:46:10.014Z,59.79
2024-04-30T20:48:17.495Z,59.77
2024-04-30T20:50:24.579Z,59.71
2024-04-30T20:52:31.378Z,59.89
2024-04-30T20:54:39.571Z,60.50
2024-04-30T20:56:46.479Z,60.68
2024-04-30T20:58:53.343Z,60.84
2024-04-30T21:01:00.234Z,60.49
2024-04-30T21:03:08.147Z,60.61
2024-04-30T21:05:15.563Z,60.77
2024-04-30T21:07:22.502Z,61.10
2024-04-30T21:09:29.390Z,61.24
2024-04-30T21:11:36.311Z,61.32
2024-04-30T21:13:43.586Z,61.17
2024-04-30T21:15:50.554Z,61.43
2024-04-30T21:17:57.507Z,61.60
2024-04-30T21:20:04.801Z,62.97
2024-04-30T21:22:11.742Z,72.29
2024-04-30T21:24:18.625Z,66.85
2024-04-30T21:26:26.028Z,60.52
2024-04-30T21:28:32.915Z,54.68
2024-04-30T21:30:41.217Z,52.75
2024-04-30T21:32:48.168Z,53.09
2024-04-30T21:34:55.514Z,54.46
2024-04-30T21:37:02.448Z,55.07
2024-04-30T21:39:10.491Z,55.88
2024-04-30T21:41:17.722Z,56.95
2024-04-30T21:43:24.666Z,57.85
2024-04-30T21:45:31.564Z,58.55
2024-04-30T21:47:38.402Z,58.05
2024-04-30T21:49:45.320Z,59.10
2024-04-30T21:51:52.255Z,59.73
2024-04-30T21:53:59.185Z,60.24
2024-04-30T21:56:06.564Z,60.11
2024-04-30T21:58:13.411Z,60.60
2024-04-30T22:00:20.617Z,61.16
2024-04-30T22:02:27.531Z,61.07
2024-04-30T22:04:35.981Z,61.14
2024-04-30T22:06:43.008Z,61.80
2024-04-30T22:08:51.297Z,62.14
2024-04-30T22:10:58.204Z,67.47
2024-04-30T22:13:05.695Z,71.74
2024-04-30T22:15:12.632Z,64.69
2024-04-30T22:17:19.581Z,57.22
2024-04-30T22:19:28.849Z,54.35
2024-04-30T22:21:35.813Z,55.11
2024-04-30T22:23:42.768Z,55.99
2024-04-30T22:25:49.748Z,57.17
2024-04-30T22:27:57.176Z,58.27
2024-04-30T22:30:13.020Z,58.95
2024-04-30T22:32:26.597Z,59.47
2024-04-30T22:34:33.656Z,60.14
2024-04-30T22:36:40.719Z,60.12
2024-04-30T22:38:47.564Z,61.33
2024-04-30T22:40:55.948Z,61.23
2024-04-30T22:43:02.934Z,61.98
2024-04-30T22:45:10.078Z,68.00
2024-04-30T22:47:17.609Z,71.10
2024-04-30T22:49:24.913Z,63.76
2024-04-30T22:51:32.074Z,57.20
2024-04-30T22:53:47.432Z,54.24
2024-04-30T22:55:58.428Z,55.47
2024-04-30T22:58:05.588Z,56.15
2024-04-30T23:00:14.228Z,57.50
2024-04-30T23:02:21.115Z,58.93
2024-04-30T23:04:28.206Z,59.48
2024-04-30T23:06:35.299Z,59.67
2024-04-30T23:08:42.278Z,60.45
2024-04-30T23:10:49.419Z,61.09
2024-04-30T23:12:56.397Z,61.94
2024-04-30T23:15:03.373Z,67.06
2024-04-30T23:17:10.253Z,69.26
2024-04-30T23:19:17.432Z,62.84
2024-04-30T23:21:26.323Z,58.64
2024-04-30T23:23:33.499Z,55.25
2024-04-30T23:25:40.876Z,55.45
2024-04-30T23:27:50.531Z,56.56
2024-04-30T23:29:57.848Z,58.16
2024-04-30T23:32:04.957Z,58.93
2024-04-30T23:34:12.075Z,59.82
2024-04-30T23:36:18.973Z,59.88
2024-04-30T23:38:25.853Z,60.95
2024-04-30T23:40:32.772Z,61.79
2024-04-30T23:42:41.101Z,61.46
2024-04-30T23:44:48.037Z,68.63
2024-04-30T23:46:55.033Z,69.82
2024-04-30T23:49:01.936Z,63.40
2024-04-30T23:51:13.665Z,56.71
2024-04-30T23:53:20.580Z,54.57
2024-04-30T23:55:27.691Z,55.69
2024-04-30T23:57:34.584Z,56.93
2024-04-30T23:59:43.343Z,57.92
